地図

経路データ

SID SEASON NUMBER BASIN SUBBASIN NAME ISO_TIME NATURE LAT LON WMO_WIND WMO_PRES WMO_AGENCY TRACK_TYPE DIST2LAND LANDFALL IFLAG USA_AGENCY USA_ATCF_ID USA_LAT USA_LON USA_RECORD USA_STATUS USA_WIND USA_PRES USA_SSHS USA_R34_NE USA_R34_SE USA_R34_SW USA_R34_NW USA_R50_NE USA_R50_SE USA_R50_SW USA_R50_NW USA_R64_NE USA_R64_SE USA_R64_SW USA_R64_NW USA_POCI USA_ROCI USA_RMW USA_EYE TOKYO_LAT TOKYO_LON TOKYO_GRADE TOKYO_WIND TOKYO_PRES TOKYO_R50_DIR TOKYO_R50_LONG TOKYO_R50_SHORT TOKYO_R30_DIR TOKYO_R30_LONG TOKYO_R30_SHORT TOKYO_LAND CMA_LAT CMA_LON CMA_CAT CMA_WIND CMA_PRES HKO_LAT HKO_LON HKO_CAT HKO_WIND HKO_PRES NEWDELHI_LAT NEWDELHI_LON NEWDELHI_GRADE NEWDELHI_WIND NEWDELHI_PRES NEWDELHI_CI NEWDELHI_DP NEWDELHI_POCI REUNION_LAT REUNION_LON REUNION_TYPE REUNION_WIND REUNION_PRES REUNION_TNUM REUNION_CI REUNION_RMW REUNION_R34_NE REUNION_R34_SE REUNION_R34_SW REUNION_R34_NW REUNION_R50_NE REUNION_R50_SE REUNION_R50_SW REUNION_R50_NW REUNION_R64_NE REUNION_R64_SE REUNION_R64_SW REUNION_R64_NW BOM_LAT BOM_LON BOM_TYPE BOM_WIND BOM_PRES BOM_TNUM BOM_CI BOM_RMW BOM_R34_NE BOM_R34_SE BOM_R34_SW BOM_R34_NW BOM_R50_NE BOM_R50_SE BOM_R50_SW BOM_R50_NW BOM_R64_NE BOM_R64_SE BOM_R64_SW BOM_R64_NW BOM_ROCI BOM_POCI BOM_EYE BOM_POS_METHOD BOM_PRES_METHOD NADI_LAT NADI_LON NADI_CAT NADI_WIND NADI_PRES WELLINGTON_LAT WELLINGTON_LON WELLINGTON_WIND WELLINGTON_PRES DS824_LAT DS824_LON DS824_STAGE DS824_WIND DS824_PRES TD9636_LAT TD9636_LON TD9636_STAGE TD9636_WIND TD9636_PRES TD9635_LAT TD9635_LON TD9635_WIND TD9635_PRES TD9635_ROCI NEUMANN_LAT NEUMANN_LON NEUMANN_CLASS NEUMANN_WIND NEUMANN_PRES MLC_LAT MLC_LON MLC_CLASS MLC_WIND MLC_PRES USA_GUST BOM_GUST BOM_GUST_PER REUNION_GUST REUNION_GUST_PER USA_SEAHGT USA_SEARAD_NE USA_SEARAD_SE USA_SEARAD_SW USA_SEARAD_NW STORM_SPEED STORM_DIR
1989190N20160 1989 56 WP MM GORDON 1989-07-09 00:00:00 NR 20.0000 160.200 main 2572 2529 O_________O___ jtwc_wp WP081989 20.0000 160.200 15 -1 20.0000 160.200 1 15 12 266
1989190N20160 1989 56 WP MM GORDON 1989-07-09 03:00:00 NR 19.9531 159.539 main 2522 2489 P_________P___ WP081989 19.9478 159.565 15 -1 19.9584 159.512 1 15 13 266
1989190N20160 1989 56 WP MM GORDON 1989-07-09 06:00:00 NR 19.9062 158.865 main 2489 2439 O_________P___ jtwc_wp WP081989 19.9000 158.900 15 -1 19.9123 158.830 1 15 13 266
1989190N20160 1989 56 WP MM GORDON 1989-07-09 09:00:00 NR 19.8588 158.175 main 2439 2399 P_________P___ WP081989 19.8575 158.193 15 -1 19.8601 158.157 1 15 13 265
1989190N20160 1989 56 WP MM GORDON 1989-07-09 12:00:00 NR 19.8000 157.500 main 2399 2367 O_________O___ jtwc_wp WP081989 19.8000 157.500 15 -1 19.8000 157.500 1 15 12 263
1989190N20160 1989 56 WP MM GORDON 1989-07-09 15:00:00 NR 19.7154 156.877 main 2367 2334 P_________P___ WP081989 19.6996 156.892 17 -1 19.7313 156.861 1 16 12 262
1989190N20160 1989 56 WP MM GORDON 1989-07-09 18:00:00 NR 19.6282 156.268 main 2337 2298 O_________P___ jtwc_wp WP081989 19.6000 156.300 20 -1 19.6563 156.235 1 17 12 263
1989190N20160 1989 56 WP MM GORDON 1989-07-09 21:00:00 NR 19.5641 155.634 main 2291 2263 P_________P___ WP081989 19.5499 155.650 20 -1 19.5782 155.617 1 18 12 264
1989190N20160 1989 56 WP MM GORDON 1989-07-10 00:00:00 NR 19.5000 155.000 main 2263 2235 O_________O___ jtwc_wp WP081989 19.5000 155.000 20 -1 19.5000 155.000 1 20 12 263
1989190N20160 1989 56 WP MM GORDON 1989-07-10 03:00:00 NR 19.4136 154.404 main 2235 2209 P_________P___ WP081989 19.3997 154.400 20 -1 19.4276 154.408 1 20 11 261
1989190N20160 1989 56 WP MM GORDON 1989-07-10 06:00:00 NR 19.3276 153.805 main 2209 2174 O_________P___ jtwc_wp WP081989 19.3000 153.800 20 -1 19.3553 153.810 1 20 12 263
1989190N20160 1989 56 WP MM GORDON 1989-07-10 09:00:00 NR 19.2651 153.178 main 2174 2145 P_________P___ WP081989 19.2497 153.173 20 -1 19.2804 153.183 1 20 12 264
1989190N20160 1989 56 WP MM GORDON 1989-07-10 12:00:00 NR 19.2000 152.500 main 2145 2117 O_________O___ jtwc_wp WP081989 19.2000 152.500 20 -1 19.2000 152.500 1 20 13 263
1989190N20160 1989 56 WP MM GORDON 1989-07-10 15:00:00 NR 19.1047 151.772 main 2117 2084 P_________P___ WP081989 19.1071 151.787 22 -1 19.1024 151.757 1 21 15 262
1989190N20160 1989 56 WP MM GORDON 1989-07-10 18:00:00 NR 18.9994 150.977 main 2084 2054 O_________P___ jtwc_wp WP081989 19.0000 151.000 25 -1 18.9987 150.955 1 22 16 262
1989190N20160 1989 56 WP MM GORDON 1989-07-10 21:00:00 NR 18.8977 150.115 main 2049 2013 P_________P___ WP081989 18.8998 150.130 25 -1 18.8957 150.100 1 23 19 262
1989190N20160 1989 56 WP MM GORDON 1989-07-11 00:00:00 TS 18.7400 149.010 1008 tokyo main 2019 1985 OOO_______O___ jtwc_wp WP081989 18.8000 149.200 25 -1 18.5000 148.500 2 1008 0 0 0 18.5000 148.000 1 23 1006 18.8000 149.200 1 25 20 263
1989190N20160 1989 56 WP MM GORDON 1989-07-11 03:00:00 TS 18.6385 148.030 main 1987 1957 PPP_______P___ WP081989 18.6920 148.265 27 -1 18.5006 147.835 2 1006 0 0 18.5006 147.373 1 26 1004 18.7230 148.220 1 26 18 264
1989190N20160 1989 56 WP MM GORDON 1989-07-11 06:00:00 TS 18.5538 147.135 1004 tokyo main 1953 1940 OOOO______P___ jtwc_wp WP081989 18.6000 147.300 30 -1 18.5000 147.200 2 1004 0 0 0 18.5000 146.800 1 29 1003 18.3000 147.000 TD 25 1000 18.6518 147.206 1 27 16 266
1989190N20160 1989 56 WP MM GORDON 1989-07-11 09:00:00 TS 18.5192 146.347 main 1937 1918 PPPP______P___ WP081989 18.5503 146.255 30 -1 18.4996 146.607 2 1002 0 0 18.4995 146.308 1 29 1001 18.4154 146.358 TD 25 1000 18.5794 146.213 1 28 14 268
1989190N20160 1989 56 WP MM GORDON 1989-07-11 12:00:00 TS 18.5000 145.616 1000 tokyo main 1915 1898 OOOO______O___ jtwc_wp WP081989 18.5000 145.300 30 -1 18.5000 146.000 2 1000 0 0 0 18.5000 145.800 1 29 1000 18.5000 145.700 TD 25 1000 18.5000 145.300 1 30 13 268
1989190N20160 1989 56 WP MM GORDON 1989-07-11 15:00:00 TS 18.4680 144.932 main 1894 1876 PPPP______P___ WP081989 18.4066 144.605 30 -1 18.4999 145.315 2 1000 0 0 18.5073 145.188 1 29 1000 18.5297 145.015 TD 25 1000 18.3965 144.539 1 31 13 266
1989190N20160 1989 56 WP MM GORDON 1989-07-11 18:00:00 TS 18.4179 144.252 1000 tokyo main 1876 1846 OOOO______P___ jtwc_wp WP081989 18.3000 144.000 30 -1 18.5000 144.600 2 1000 0 0 0 18.5000 144.500 1 29 1000 18.5000 144.300 TD 25 1000 18.2894 143.860 1 32 13 265
1989190N20160 1989 56 WP MM GORDON 1989-07-11 21:00:00 TS 18.3503 143.554 main 1846 1828 PPPP______P___ WP081989 18.1924 143.300 32 -1 18.4997 143.908 2 998 0 0 18.4572 143.780 1 29 999 18.4148 143.557 TD 27 997 18.1876 143.226 1 33 13 264
1989190N20160 1989 56 WP MM GORDON 1989-07-12 00:00:00 TS 18.2800 142.840 40 996 tokyo main 1824 1809 OOOO______O___ jtwc_wp WP081989 18.1000 142.600 35 0 18.5000 143.200 3 40 996 0 9 90 90 0 18.4000 143.000 1 29 998 18.3000 142.800 TD 30 995 18.1000 142.600 2 35 14 265
1989190N20160 1989 56 WP MM GORDON 1989-07-12 03:00:00 TS 18.2275 142.105 main 1809 1784 PPPP______P___ WP081989 18.0421 141.950 37 0 18.5150 142.443 3 40 994 0 9 90 90 18.3576 142.143 1 33 996 18.1923 142.042 TD 32 992 18.0303 141.946 2 37 14 266
1989190N20160 1989 56 WP MM GORDON 1989-07-12 06:00:00 TS 18.1751 141.378 40 992 tokyo main 1784 1755 OOOO______P___ jtwc_wp WP081989 18.0000 141.300 40 0 18.5000 141.700 3 40 992 0 9 90 90 0 18.3000 141.300 2 38 995 18.1000 141.300 TS 35 990 17.9757 141.288 2 40 13 265
1989190N20160 1989 56 WP MM GORDON 1989-07-12 09:00:00 TS 18.1048 140.695 main 1755 1686 PPPP______P___ WP081989 17.9422 140.622 42 0 18.4068 141.065 3 42 991 0 9 95 95 18.1920 140.577 2 38 995 18.0496 140.600 TS 37 987 17.9333 140.611 2 42 13 264
1989190N20160 1989 56 WP MM GORDON 1989-07-12 12:00:00 TS 18.0400 140.000 45 990 tokyo main 1686 1617 OOOO______O___ jtwc_wp WP081989 17.9000 139.900 45 0 18.3000 140.400 3 45 990 0 9 100 100 0 18.1000 139.900 2 38 995 18.0000 139.900 TS 40 985 17.9000 139.900 2 45 14 266
1989190N20160 1989 56 WP MM GORDON 1989-07-12 15:00:00 TS 18.0137 139.234 main 1607 1538 PPPP______P___ WP081989 17.8998 139.115 47 0 18.2501 139.573 3 47 987 0 9 112 112 18.1072 139.200 2 43 992 17.9148 139.158 TS 42 982 17.8963 139.125 2 47 15 268
1989190N20160 1989 56 WP MM GORDON 1989-07-12 18:00:00 TS 17.9790 138.443 50 985 tokyo main 1529 1456 OOOO______P___ jtwc_wp WP081989 17.9000 138.300 50 0 18.2000 138.700 4 50 985 0 9 125 125 0 18.1000 138.500 3 48 990 17.8000 138.400 TS 45 980 17.8951 138.316 2 50 15 266
1989190N20160 1989 56 WP MM GORDON 1989-07-12 21:00:00 TS 17.9019 137.675 main 1456 1375 PPPP______P___ WP081989 17.8647 137.500 52 0 18.1295 137.900 4 52 982 0 9 125 125 17.9870 137.823 3 48 987 17.6572 137.650 TS 47 977 17.8712 137.500 2 52 15 262
1989190N20160 1989 56 WP MM GORDON 1989-07-13 00:00:00 TS 17.7800 136.900 55 980 tokyo main 1375 1289 OOOO______O___ jtwc_wp WP081989 17.8000 136.700 55 0 18.0000 137.100 4 55 980 9 40 40 9 125 125 0 17.8000 137.100 3 48 985 17.5000 136.900 STS 50 975 17.8000 136.700 2 55 15 259
1989190N20160 1989 56 WP MM GORDON 1989-07-13 03:00:00 TS 17.6088 136.087 main 1289 1203 PPPP______P___ WP081989 17.7374 135.878 57 0 17.7650 136.235 4 57 977 9 45 45 9 137 137 17.5577 136.250 3 53 982 17.3423 136.143 STS 50 975 17.6415 135.932 2 57 16 256
1989190N20160 1989 56 WP MM GORDON 1989-07-13 06:00:00 TS 17.4073 135.298 60 975 tokyo main 1203 1127 OOOO______P___ jtwc_wp WP081989 17.6000 135.100 60 0 17.5000 135.400 4 60 975 9 50 50 9 150 150 0 17.3000 135.400 3 58 980 17.2000 135.400 STS 50 975 17.4367 135.189 2 60 15 254
1989190N20160 1989 56 WP MM GORDON 1989-07-13 09:00:00 TS 17.2040 134.580 main 1127 1060 PPPP______P___ WP081989 17.3221 134.420 62 0 17.2847 134.663 4 62 972 9 50 50 9 150 150 17.0922 134.655 3 63 977 17.1073 134.685 STS 52 972 17.2136 134.476 2 62 14 253
1989190N20160 1989 56 WP MM GORDON 1989-07-13 12:00:00 TS 17.0000 133.920 65 970 tokyo main 1051 985 OOOO______O___ jtwc_wp WP081989 17.0000 133.800 65 1 17.1000 134.000 5 65 970 9 50 50 9 150 150 0 16.9000 134.000 4 68 975 17.0000 134.000 STS 55 970 17.0000 133.800 3 65 13 251
1989190N20160 1989 56 WP MM GORDON 1989-07-13 15:00:00 TS 16.7905 133.310 main 985 918 PPPP______P___ WP081989 16.7123 133.193 67 1 16.9496 133.393 5 67 967 9 50 50 9 150 150 16.6770 133.450 4 68 972 16.7997 133.342 STS 57 967 16.8141 133.173 3 67 12 251
1989190N20160 1989 56 WP MM GORDON 1989-07-13 18:00:00 TS 16.6092 132.716 70 965 tokyo main 918 858 OOOO______P___ jtwc_wp WP081989 16.5000 132.600 70 1 16.8000 132.800 5 70 965 9 50 50 9 150 150 0 16.5000 132.900 4 68 970 16.6000 132.700 STS 60 965 16.6459 132.578 3 70 12 255
1989190N20160 1989 56 WP MM GORDON 1989-07-13 21:00:00 TS 16.4799 132.083 main 858 799 PPPP______P___ WP081989 16.4198 132.000 72 1 16.5773 132.165 5 72 957 9 65 65 9 150 150 16.4200 132.215 4 68 970 16.4774 132.043 STS 62 960 16.5048 131.994 3 72 12 260
1989190N20160 1989 56 WP MM GORDON 1989-07-14 00:00:00 TS 16.4000 131.440 75 950 tokyo main 790 739 OOOO______O___ jtwc_wp WP081989 16.4000 131.400 75 1 16.4000 131.500 5 75 950 9 80 80 9 150 150 0 16.4000 131.500 4 68 970 16.4000 131.400 T 65 955 16.4000 131.400 4 75 12 264
1989190N20160 1989 56 WP MM GORDON 1989-07-14 03:00:00 TS 16.3552 130.811 main 739 678 PPPP______P___ WP081989 16.3422 130.815 82 1 16.3773 130.808 5 77 950 9 80 80 9 162 162 16.3996 130.858 4 72 965 16.3346 130.808 T 70 950 16.3224 130.765 4 81 12 267
1989190N20160 1989 56 WP MM GORDON 1989-07-14 06:00:00 TS 16.3364 130.163 80 950 tokyo main 678 610 OOOO______P___ jtwc_wp WP081989 16.3000 130.200 90 2 16.4000 130.100 5 80 950 9 80 80 9 175 175 0 16.4000 130.200 4 77 960 16.3000 130.200 T 75 945 16.2820 130.115 4 87 13 268
1989190N20160 1989 56 WP MM GORDON 1989-07-14 09:00:00 TS 16.3076 129.463 main 610 543 PPPP______P___ WP081989 16.2849 129.515 95 2 16.3424 129.385 5 82 945 9 80 80 9 175 175 16.3501 129.442 4 82 957 16.2849 129.515 T 80 940 16.2755 129.458 4 93 13 268
1989190N20160 1989 56 WP MM GORDON 1989-07-14 12:00:00 TS 16.3000 128.760 85 940 tokyo main 543 479 OOOO______O___ jtwc_wp WP081989 16.3000 128.800 100 3 16.3000 128.700 5 85 940 9 80 80 9 175 175 0 16.3000 128.700 5 87 955 16.3000 128.800 ST 85 935 16.3000 128.800 4 100 13 270
1989190N20160 1989 56 WP MM GORDON 1989-07-14 15:00:00 TS 16.3177 128.093 main 479 434 PPPP______P___ WP081989 16.3349 128.085 107 3 16.3272 128.085 5 87 937 9 80 80 9 175 175 16.2696 128.085 5 92 947 16.3350 128.078 ST 90 930 16.3216 128.134 4 106 13 273
1989190N20160 1989 56 WP MM GORDON 1989-07-14 18:00:00 TS 16.3749 127.454 90 935 tokyo main 434 387 OOOO______P___ jtwc_wp WP081989 16.4000 127.400 115 4 16.4000 127.500 5 90 935 9 80 80 9 175 175 0 16.3000 127.500 5 97 940 16.4000 127.400 ST 95 925 16.3747 127.470 4 112 12 277
1989190N20160 1989 56 WP MM GORDON 1989-07-14 21:00:00 TS 16.4680 126.831 main 387 361 PPPP______P___ WP081989 16.4773 126.777 120 4 16.4849 126.892 5 92 930 9 85 85 9 187 187 16.4276 126.835 5 97 937 16.4847 126.827 ST 105 915 16.4654 126.821 4 118 12 281
1989190N20160 1989 56 WP MM GORDON 1989-07-15 00:00:00 TS 16.6000 126.240 95 925 tokyo main 355 337 OOOO______O___ jtwc_wp WP081989 16.6000 126.200 125 4 16.6000 126.300 5 95 925 9 90 90 9 200 200 0 16.6000 126.200 5 97 935 16.6000 126.300 SuperT 115 905 16.6000 126.200 4 125 11 284
1989190N20160 1989 56 WP MM GORDON 1989-07-15 03:00:00 TS 16.7480 125.697 main 337 287 PPPP______P___ WP081989 16.7773 125.642 132 4 16.7197 125.750 5 97 920 9 95 95 9 210 210 16.7271 125.692 5 101 932 16.7273 125.757 SuperT 115 905 16.7888 125.642 4 128 11 288
1989190N20160 1989 56 WP MM GORDON 1989-07-15 06:00:00 TS 16.9437 125.162 100 915 tokyo main 287 224 OOOO______P___ jtwc_wp WP081989 17.0000 125.100 140 5 16.9000 125.200 5 100 915 9 100 100 9 220 220 0 16.9000 125.200 6 106 930 16.9000 125.200 SuperT 115 905 17.0183 125.108 4 132 11 294
1989190N20160 1989 56 WP MM GORDON 1989-07-15 09:00:00 TS 17.2035 124.608 main 224 168 PPPP______P___ WP081989 17.2496 124.572 140 5 17.1847 124.630 5 100 915 9 100 100 9 222 222 17.1847 124.638 6 111 925 17.1347 124.630 SuperT 115 905 17.2637 124.570 4 136 12 296
1989190N20160 1989 56 WP MM GORDON 1989-07-15 12:00:00 TS 17.4800 124.000 100 915 tokyo main 168 105 OOOO______O___ jtwc_wp WP081989 17.5000 124.000 140 5 17.5000 124.000 5 100 915 9 100 100 9 225 225 0 17.5000 124.000 6 116 920 17.4000 124.000 SuperT 115 905 17.5000 124.000 4 140 14 293
1989190N20160 1989 56 WP MM GORDON 1989-07-15 15:00:00 TS 17.7338 123.284 main 105 47 PPPP______P___ WP081989 17.7150 123.315 140 5 17.7877 123.250 5 97 920 9 100 100 9 225 225 17.7802 123.250 6 116 920 17.6802 123.250 SuperT 110 910 17.7057 123.353 4 135 15 288
1989190N20160 1989 56 WP MM GORDON 1989-07-15 18:00:00 TS 17.9390 122.555 95 925 tokyo main 47 0 OOOO______P___ jtwc_wp WP081989 17.9000 122.600 140 5 18.0000 122.500 5 95 925 9 100 100 9 225 225 0 18.0000 122.500 6 116 920 17.9000 122.500 SuperT 105 915 17.8951 122.673 4 130 14 284
1989190N20160 1989 56 WP MM GORDON 1989-07-15 21:00:00 TS 18.0661 121.907 main 0 0 PPPP______P___ WP081989 18.0723 121.935 130 4 18.0797 121.870 5 90 932 9 100 100 9 237 237 18.1446 121.870 6 111 922 17.9721 121.877 SuperT 92 935 18.0619 121.981 4 125 12 280
1989190N20160 1989 56 WP MM GORDON 1989-07-16 00:00:00 TS 18.1400 121.300 85 940 tokyo main 0 0 OOOO______O___ jtwc_wp WP081989 18.2000 121.300 120 4 18.1000 121.300 5 85 940 9 100 100 9 250 250 0 18.2000 121.300 6 106 925 18.0000 121.300 T 80 955 18.2000 121.300 4 120 11 276
1989190N20160 1989 56 WP MM GORDON 1989-07-16 03:00:00 TS 18.1805 120.709 main 0 0 PPPP______P___ WP081989 18.2572 120.700 115 4 18.1272 120.750 5 80 947 9 95 95 9 250 250 18.1347 120.749 6 101 927 18.0923 120.700 T 75 962 18.2910 120.648 4 115 11 275
1989190N20160 1989 56 WP MM GORDON 1989-07-16 06:00:00 TS 18.2314 120.122 75 955 tokyo main 43 43 OOOO______P___ jtwc_wp WP081989 18.3000 120.100 110 3 18.2000 120.200 5 75 955 9 90 90 9 250 250 0 18.1000 120.200 5 97 930 18.2000 120.100 T 70 970 18.3568 120.011 4 110 12 278
1989190N20160 1989 56 WP MM GORDON 1989-07-16 09:00:00 TS 18.3502 119.512 main 110 110 PPPP______P___ WP081989 18.3999 119.450 105 3 18.3773 119.615 5 75 955 9 90 90 9 250 250 18.2624 119.608 5 97 932 18.2924 119.492 T 70 970 18.4192 119.394 4 105 12 283
1989190N20160 1989 56 WP MM GORDON 1989-07-16 12:00:00 TS 18.5000 118.900 75 955 tokyo main 174 174 OOOO______O___ jtwc_wp WP081989 18.5000 118.800 100 3 18.6000 119.000 5 75 955 9 90 90 9 250 250 0 18.5000 119.000 5 97 935 18.4000 118.900 T 70 970 18.5000 118.800 4 100 12 284
1989190N20160 1989 56 WP MM GORDON 1989-07-16 15:00:00 TS 18.6368 118.294 main 238 238 PPPP______P___ WP081989 18.5274 118.177 95 2 18.8075 118.343 5 75 957 9 90 90 9 250 250 18.7149 118.393 5 92 937 18.5348 118.342 T 70 970 18.5994 118.216 4 95 12 284
1989190N20160 1989 56 WP MM GORDON 1989-07-16 18:00:00 TS 18.7849 117.711 75 960 tokyo main 305 305 OOOO______P___ jtwc_wp WP081989 18.6000 117.600 90 2 19.0000 117.700 5 75 960 9 90 90 9 250 250 0 18.9000 117.800 5 87 940 18.7000 117.800 T 70 970 18.7243 117.654 4 90 11 286
1989190N20160 1989 56 WP MM GORDON 1989-07-16 21:00:00 TS 18.9408 117.156 main 358 358 PPPP______P___ WP081989 18.8122 117.085 85 2 19.1424 117.112 5 72 962 9 90 90 9 250 250 18.9774 117.227 5 82 947 18.8849 117.242 T 70 970 18.8871 117.116 4 85 11 289
1989190N20160 1989 56 WP MM GORDON 1989-07-17 00:00:00 TS 19.1400 116.640 70 965 tokyo main 411 371 OOOO______O___ jtwc_wp WP081989 19.1000 116.600 80 1 19.3000 116.600 5 70 965 9 90 90 9 250 250 0 19.1000 116.700 4 77 955 19.1000 116.700 T 70 970 19.1000 116.600 4 80 11 297
1989190N20160 1989 56 WP MM GORDON 1989-07-17 03:00:00 TS 19.4145 116.166 main 371 323 PPPP______P___ WP081989 19.3849 116.092 77 1 19.5347 116.185 5 70 965 9 90 90 9 250 250 19.4198 116.235 4 77 957 19.3347 116.200 T 70 970 19.3982 116.116 4 77 11 304
1989190N20160 1989 56 WP MM GORDON 1989-07-17 06:00:00 TS 19.7283 115.710 70 965 tokyo main 323 277 OOOO______P___ jtwc_wp WP081989 19.7000 115.600 75 1 19.8000 115.800 5 70 965 9 90 90 9 250 250 0 19.8000 115.800 4 77 960 19.6000 115.700 T 70 970 19.7413 115.651 4 75 11 306
1989190N20160 1989 56 WP MM GORDON 1989-07-17 09:00:00 TS 20.0436 115.249 main 273 229 PPPP______P___ WP081989 20.0647 115.157 72 1 20.0497 115.380 5 67 967 9 90 90 9 250 250 20.1148 115.365 4 77 960 19.8999 115.157 T 70 970 20.0888 115.185 4 72 11 304
1989190N20160 1989 56 WP MM GORDON 1989-07-17 12:00:00 TS 20.3400 114.760 65 970 tokyo main 229 190 OOOO______O___ jtwc_wp WP081989 20.4000 114.700 70 1 20.3000 114.900 5 65 970 9 90 90 9 250 250 0 20.4000 114.900 4 77 960 20.2000 114.600 T 70 970 20.4000 114.700 4 70 11 299
1989190N20160 1989 56 WP MM GORDON 1989-07-17 15:00:00 TS 20.5848 114.220 main 190 142 PPPP______P___ WP081989 20.6300 114.165 67 1 20.5498 114.337 5 65 970 9 90 90 9 250 250 20.6650 114.365 4 77 960 20.4573 114.050 T 70 970 20.6217 114.183 4 67 11 294
1989190N20160 1989 56 WP MM GORDON 1989-07-17 18:00:00 TS 20.8003 113.649 65 970 tokyo main 137 101 OOOO______P___ jtwc_wp WP081989 20.8000 113.600 65 1 20.8000 113.700 5 65 970 9 90 90 9 250 250 0 20.9000 113.800 4 77 960 20.7000 113.500 T 70 970 20.8017 113.644 4 65 12 291
1989190N20160 1989 56 WP MM GORDON 1989-07-17 21:00:00 TS 21.0086 113.064 main 101 59 PPPP______P___ WP081989 20.9572 113.057 62 0 21.0578 112.978 5 60 975 9 82 82 9 250 187 21.1148 113.250 4 77 960 20.9573 112.950 T 70 970 20.9559 113.083 4 62 12 290
1989190N20160 1989 56 WP MM GORDON 1989-07-18 00:00:00 TS 21.2000 112.480 55 980 tokyo main 59 30 OOOO______O___ jtwc_wp WP081989 21.1000 112.500 60 0 21.3000 112.300 4 55 980 9 75 75 4 250 125 0 21.3000 112.700 4 77 960 21.2000 112.400 T 70 970 21.1000 112.500 2 60 11 289
1989190N20160 1989 56 WP MM GORDON 1989-07-18 03:00:00 TS 21.3779 111.935 main 24 0 PPPP______P___ WP081989 21.2498 111.915 57 0 21.5144 111.827 4 55 980 9 62 62 4 225 112 21.4570 112.180 4 72 965 21.4072 111.865 T 70 970 21.2611 111.888 2 57 11 288
1989190N20160 1989 56 WP MM GORDON 1989-07-18 06:00:00 TS 21.5430 111.371 55 980 tokyo main 0 0 OOOO______P___ jtwc_wp WP081989 21.4000 111.300 55 0 21.7000 111.400 4 55 980 9 50 50 4 200 100 0 21.6000 111.600 4 68 970 21.6000 111.300 T 70 970 21.4149 111.257 2 55 12 286
1989190N20160 1989 56 WP MM GORDON 1989-07-18 09:00:00 TS 21.6887 110.735 main 0 0 PPPP______P___ WP081989 21.5498 110.657 52 0 21.8423 110.880 4 52 982 9 4 187 90 21.7129 110.850 4 58 975 21.7774 110.665 T 62 975 21.5611 110.623 2 52 12 285
1989190N20160 1989 56 WP MM GORDON 1989-07-18 12:00:00 TS 21.8600 110.080 50 985 tokyo main 0 0 OOOO______O___ jtwc_wp WP081989 21.7000 110.000 50 0 22.0000 110.300 4 50 985 0 4 175 80 0 21.9000 110.100 3 48 980 22.0000 110.000 STS 55 980 21.7000 110.000 2 50 13 290
1989190N20160 1989 56 WP MM GORDON 1989-07-18 15:00:00 TS 22.1147 109.454 main 0 0 PPPP______P___ WP081989 21.8575 109.328 42 0 22.2722 109.681 4 45 988 0 4 175 80 22.2618 109.535 3 43 982 22.3500 109.328 STS 47 982 21.8321 109.401 2 43 13 296
1989190N20160 1989 56 WP MM GORDON 1989-07-18 18:00:00 TS 22.3986 108.863 40 992 tokyo main 0 0 OOOO______P___ jtwc_wp WP081989 22.0000 108.700 35 0 22.5000 109.000 3 40 992 0 4 175 80 0 22.7000 109.000 2 38 985 22.7000 108.700 TS 40 985 21.9585 108.823 2 37 12 296
1989190N20160 1989 56 WP MM GORDON 1989-07-18 21:00:00 TS 22.6462 108.263 main 0 0 PPPP______P___ WP081989 22.1101 108.170 30 -1 22.5373 108.264 3 994 0 4 23.1600 108.358 2 38 987 22.9376 108.170 TS 32 987 22.0808 108.258 2 31 12 291
1989190N20160 1989 56 WP MM GORDON 1989-07-19 00:00:00 TS 22.8333 107.633 996 tokyo main 0 0 OOOO______O___ jtwc_wp WP081989 22.2000 107.700 25 -1 22.5000 107.500 2 996 0 0 0 23.5000 107.700 2 38 990 23.1000 107.700 TD 25 990 22.2000 107.700 1 25 13 287
1989190N20160 1989 56 WP MM GORDON 1989-07-19 03:00:00 TS 23.0342 106.915 main 0 0 _PP___________ WP081989 -1 22.4881 106.745 2 997 0 0 23.5803 107.084 2 33 992 TD 1 13 277
1989190N20160 1989 56 WP MM GORDON 1989-07-19 06:00:00 TS 23.0000 106.250 998 tokyo main 0 _OO___________ -1 22.5000 106.000 2 998 0 0 0 23.5000 106.500 1 29 995 1 12 267

デジタル台風データ・検索

IBTrACS Databaseについて

本データベースは、米国NOAAが公開する1842年以降の世界の熱帯低気圧のベストトラックデータアーカイブInternational Best Track Archive for Climate Stewardship (IBTrACS)を、ウェブで閲覧しやすい形式に変換したものです。

最終更新日:2021-10-21